Time;durP1;ratioP1;P1;durP2;ratioP2;P2;SDS_P1;SDS_P2;PMS_P1;PMS_P2;Temp;Humidity;BMP_temperature;BMP_pressure;BME280_temperature;BME280_humidity;BME280_pressure;Samples;Min_cycle;Max_cycle;Signal;HPM_P1;HPM_P2
2022/08/30 00:02:20;;;;;;;13.10;6.45;;;20.50;99.90;;;;;;5014857;28;20018;-74
2022/08/30 00:04:47;;;;;;;11.75;6.82;;;20.40;99.90;;;;;;5014525;28;20030;-75
2022/08/30 00:07:12;;;;;;;13.23;6.60;;;20.40;99.90;;;;;;5015346;28;20022;-74
2022/08/30 00:09:38;;;;;;;12.10;7.10;;;20.50;99.90;;;;;;5014420;28;20084;-74
2022/08/30 00:12:04;;;;;;;15.15;7.30;;;20.50;99.90;;;;;;5013011;28;20105;-73
2022/08/30 00:14:30;;;;;;;13.30;7.28;;;20.50;99.90;;;;;;5014874;28;20034;-72
2022/08/30 00:16:56;;;;;;;11.85;5.90;;;20.50;99.90;;;;;;5014883;28;20126;-75
2022/08/30 00:19:22;;;;;;;14.73;7.55;;;20.40;99.90;;;;;;5013555;28;20026;-73
2022/08/30 00:21:47;;;;;;;11.25;6.97;;;20.40;99.90;;;;;;5014158;28;20108;-72
2022/08/30 00:24:13;;;;;;;14.00;7.15;;;20.30;99.90;;;;;;5014759;28;20028;-73
2022/08/30 00:26:39;;;;;;;12.40;7.07;;;20.30;99.90;;;;;;5013277;28;20022;-73
2022/08/30 00:29:05;;;;;;;12.68;7.13;;;20.20;99.90;;;;;;5013770;28;20026;-75
2022/08/30 00:31:31;;;;;;;12.05;6.93;;;20.10;99.90;;;;;;5014527;28;20026;-74
2022/08/30 00:33:56;;;;;;;13.57;6.78;;;20.10;99.90;;;;;;5014358;28;20073;-73
2022/08/30 00:36:22;;;;;;;10.65;7.28;;;20.10;99.90;;;;;;5014628;28;20052;-73
2022/08/30 00:38:48;;;;;;;12.93;6.85;;;20.10;99.90;;;;;;5014157;28;20032;-73
2022/08/30 00:41:14;;;;;;;12.02;7.20;;;20.10;99.90;;;;;;5014525;28;20109;-74
2022/08/30 00:43:40;;;;;;;13.02;6.97;;;20.20;99.90;;;;;;5014540;28;20040;-74
2022/08/30 00:46:07;;;;;;;15.13;7.55;;;20.30;99.90;;;;;;5019181;28;20500;-72
2022/08/30 00:48:37;;;;;;;13.80;8.20;;;20.30;99.90;;;;;;5013738;28;20054;-74
2022/08/30 00:51:07;;;;;;;14.55;8.93;;;20.40;99.90;;;;;;5017406;28;20053;-73
2022/08/30 00:53:40;;;;;;;12.60;7.75;;;20.40;99.90;;;;;;5017812;28;20034;-73
2022/08/30 00:56:07;;;;;;;13.23;8.20;;;20.40;99.90;;;;;;5016600;28;20053;-72
2022/08/30 00:58:36;;;;;;;14.45;8.98;;;20.50;99.90;;;;;;5014011;28;20018;-72
2022/08/30 01:01:03;;;;;;;10.98;7.18;;;20.50;99.90;;;;;;5014047;28;20037;-74
2022/08/30 01:03:31;;;;;;;14.02;8.93;;;20.50;99.90;;;;;;5013575;28;20021;-74
2022/08/30 01:05:57;;;;;;;15.02;8.70;;;20.60;99.90;;;;;;5014093;28;20032;-74
2022/08/30 01:08:23;;;;;;;12.45;7.45;;;20.60;99.90;;;;;;5023591;28;20093;-74
2022/08/30 01:10:51;;;;;;;12.50;7.55;;;20.50;99.90;;;;;;5012813;28;20033;-74
2022/08/30 01:13:18;;;;;;;12.82;7.53;;;20.50;99.90;;;;;;5013635;28;20087;-74
2022/08/30 01:15:45;;;;;;;13.15;7.95;;;20.60;99.90;;;;;;5013992;28;20037;-74
2022/08/30 01:18:12;;;;;;;14.93;8.82;;;20.60;99.90;;;;;;5013700;28;20052;-74
2022/08/30 01:20:46;;;;;;;15.43;8.98;;;20.70;99.90;;;;;;5013674;28;20026;-75
2022/08/30 01:23:17;;;;;;;15.23;8.52;;;20.80;99.90;;;;;;5013589;28;20473;-74
2022/08/30 01:25:47;;;;;;;14.40;7.90;;;20.80;99.90;;;;;;5013801;28;20095;-74
2022/08/30 01:28:18;;;;;;;14.60;7.68;;;20.90;99.90;;;;;;5013618;28;20041;-75
2022/08/30 01:30:45;;;;;;;16.35;8.70;;;20.90;99.90;;;;;;5013642;28;20048;-75
2022/08/30 01:33:11;;;;;;;15.23;8.27;;;20.90;99.90;;;;;;5013261;28;20461;-74
2022/08/30 01:35:51;;;;;;;12.75;7.22;;;20.90;99.90;;;;;;5013466;28;20036;-73
2022/08/30 01:38:18;;;;;;;14.15;8.45;;;20.90;99.90;;;;;;5013463;28;20033;-73
2022/08/30 01:40:44;;;;;;;13.68;7.70;;;21.00;99.90;;;;;;5013284;28;20028;-73
2022/08/30 01:43:12;;;;;;;12.88;7.43;;;20.90;99.90;;;;;;5012935;28;20032;-73
2022/08/30 01:45:39;;;;;;;12.05;7.13;;;21.00;99.90;;;;;;5008837;28;20026;-73
2022/08/30 01:48:04;;;;;;;13.13;8.05;;;21.00;99.90;;;;;;5012141;28;20085;-73
2022/08/30 01:50:30;;;;;;;14.73;8.35;;;21.00;99.90;;;;;;5012918;28;20112;-72
2022/08/30 01:52:56;;;;;;;13.60;8.25;;;21.00;99.90;;;;;;5012767;28;20037;-71
2022/08/30 01:55:22;;;;;;;15.43;7.97;;;21.00;99.90;;;;;;5012943;28;20503;-73
2022/08/30 01:57:48;;;;;;;12.57;7.57;;;21.00;99.90;;;;;;5012448;28;20028;-73
2022/08/30 02:00:16;;;;;;;13.18;7.78;;;21.00;99.90;;;;;;5007755;28;20026;-72
2022/08/30 02:02:42;;;;;;;14.13;8.05;;;21.00;99.90;;;;;;5011421;28;20083;-73
2022/08/30 02:05:08;;;;;;;14.05;8.82;;;21.10;99.90;;;;;;5011698;28;20033;-73
2022/08/30 02:07:34;;;;;;;13.50;7.90;;;21.00;99.90;;;;;;5012076;28;20520;-74
2022/08/30 02:10:00;;;;;;;14.43;7.95;;;21.00;99.90;;;;;;5012603;28;20022;-73
2022/08/30 02:12:27;;;;;;;20.27;8.23;;;21.00;99.90;;;;;;5012442;28;20037;-73
2022/08/30 02:14:52;;;;;;;12.95;7.40;;;20.90;99.90;;;;;;5013026;28;20037;-74
2022/08/30 02:17:18;;;;;;;14.20;7.85;;;20.90;99.90;;;;;;5012643;28;20524;-74
2022/08/30 02:19:44;;;;;;;18.98;8.13;;;20.90;99.90;;;;;;5012297;28;20058;-74
2022/08/30 02:22:11;;;;;;;12.20;7.88;;;20.80;99.90;;;;;;5012332;28;20029;-74
2022/08/30 02:24:36;;;;;;;14.70;8.02;;;20.80;99.90;;;;;;5012610;28;20021;-69
2022/08/30 02:27:03;;;;;;;12.38;8.23;;;20.70;99.90;;;;;;5012851;28;20030;-73
2022/08/30 02:29:29;;;;;;;13.63;7.22;;;20.50;99.90;;;;;;5011820;28;20050;-73
2022/08/30 02:31:54;;;;;;;15.35;7.45;;;20.30;99.90;;;;;;5012353;28;20056;-73
2022/08/30 02:34:20;;;;;;;16.95;9.20;;;20.30;99.90;;;;;;5012525;28;20547;-74
2022/08/30 02:36:46;;;;;;;13.68;7.93;;;20.30;99.90;;;;;;5012648;28;20034;-72
2022/08/30 02:39:13;;;;;;;14.23;7.50;;;20.30;99.90;;;;;;5012430;28;20026;-75
2022/08/30 02:41:40;;;;;;;12.18;7.03;;;20.30;99.90;;;;;;5012497;28;20033;-75
2022/08/30 02:44:07;;;;;;;13.55;8.82;;;20.10;99.90;;;;;;5012538;28;20033;-74
2022/08/30 02:46:34;;;;;;;16.17;8.30;;;20.10;99.90;;;;;;5012254;28;20473;-73
2022/08/30 02:49:00;;;;;;;16.25;8.13;;;20.10;99.90;;;;;;5012182;28;20499;-74
2022/08/30 02:51:25;;;;;;;13.05;7.32;;;20.10;99.90;;;;;;5012098;28;20123;-75
2022/08/30 02:53:51;;;;;;;13.02;7.53;;;20.00;99.90;;;;;;5015339;28;20034;-73
2022/08/30 02:56:17;;;;;;;12.80;7.57;;;20.00;99.90;;;;;;5016328;28;20033;-75
2022/08/30 02:58:44;;;;;;;19.00;7.80;;;19.90;99.90;;;;;;5016197;28;20025;-73
2022/08/30 03:01:12;;;;;;;14.60;8.80;;;19.90;99.90;;;;;;5015485;28;20389;-74
2022/08/30 03:03:39;;;;;;;10.70;7.35;;;19.90;99.90;;;;;;5015901;28;20036;-74
2022/08/30 03:06:05;;;;;;;14.27;7.90;;;19.90;99.90;;;;;;5016382;28;20404;-74
2022/08/30 03:08:32;;;;;;;13.63;8.13;;;19.90;99.90;;;;;;5015779;28;20021;-74
2022/08/30 03:10:59;;;;;;;13.35;7.95;;;19.90;99.90;;;;;;5015616;28;20040;-73
2022/08/30 03:13:25;;;;;;;14.27;7.97;;;19.90;99.90;;;;;;5015926;28;20477;-74
2022/08/30 03:15:51;;;;;;;16.40;9.02;;;19.90;99.90;;;;;;5015824;28;20101;-73
2022/08/30 03:18:19;;;;;;;17.10;8.75;;;19.90;99.90;;;;;;5015655;28;20061;-73
2022/08/30 03:20:45;;;;;;;16.90;8.73;;;19.90;99.90;;;;;;5015036;28;20084;-74
2022/08/30 03:23:11;;;;;;;15.23;8.82;;;20.00;99.90;;;;;;5015737;28;20030;-73
2022/08/30 03:25:38;;;;;;;15.27;9.10;;;20.00;99.90;;;;;;5015666;28;20556;-72
2022/08/30 03:28:05;;;;;;;17.17;9.40;;;20.00;99.90;;;;;;5015692;28;20555;-72
2022/08/30 03:30:31;;;;;;;13.63;8.50;;;20.00;99.90;;;;;;5014932;28;20101;-72
2022/08/30 03:32:57;;;;;;;14.15;8.52;;;20.00;99.90;;;;;;5014995;28;20026;-71
2022/08/30 03:35:23;;;;;;;13.80;8.60;;;20.00;99.90;;;;;;5014859;28;20025;-72
2022/08/30 03:37:49;;;;;;;14.57;8.32;;;20.10;99.90;;;;;;5015254;28;20169;-73
2022/08/30 03:40:17;;;;;;;17.58;7.75;;;20.10;99.90;;;;;;5014712;28;20026;-69
2022/08/30 03:42:44;;;;;;;14.30;8.65;;;20.10;99.90;;;;;;5015201;28;20033;-70
2022/08/30 03:45:11;;;;;;;16.50;8.00;;;20.10;99.90;;;;;;5015216;28;20469;-71
2022/08/30 03:47:36;;;;;;;15.90;8.93;;;20.10;99.90;;;;;;5014161;28;20496;-73
2022/08/30 03:50:03;;;;;;;14.73;9.25;;;20.10;99.90;;;;;;5015147;28;20042;-73
2022/08/30 03:52:29;;;;;;;15.10;8.60;;;20.20;99.90;;;;;;5014621;28;20396;-73
2022/08/30 03:54:55;;;;;;;18.23;9.68;;;20.00;99.90;;;;;;5015307;28;20035;-73
2022/08/30 03:57:21;;;;;;;17.48;9.63;;;20.10;99.90;;;;;;5014725;28;20018;-72
2022/08/30 03:59:47;;;;;;;16.17;8.90;;;20.10;99.90;;;;;;5014476;28;20044;-73
2022/08/30 04:02:12;;;;;;;13.55;8.70;;;20.10;99.90;;;;;;5014404;28;20018;-73
2022/08/30 04:04:38;;;;;;;15.93;8.98;;;20.10;99.90;;;;;;5013176;28;20022;-63
2022/08/30 04:07:04;;;;;;;14.90;8.55;;;20.10;99.90;;;;;;5024317;28;20010;-74
2022/08/30 04:09:30;;;;;;;16.23;9.50;;;20.00;99.90;;;;;;5014720;28;20091;-74
2022/08/30 04:11:56;;;;;;;13.93;8.88;;;20.00;99.90;;;;;;5014499;28;20101;-72
2022/08/30 04:14:22;;;;;;;13.65;7.32;;;20.00;99.90;;;;;;5014212;28;20380;-74
2022/08/30 04:16:48;;;;;;;17.08;10.10;;;20.10;99.90;;;;;;5014371;28;20427;-73
2022/08/30 04:19:14;;;;;;;16.15;8.95;;;20.10;99.90;;;;;;5014278;28;20041;-74
2022/08/30 04:21:40;;;;;;;13.45;8.43;;;20.10;99.90;;;;;;5014337;28;20104;-75
2022/08/30 04:24:06;;;;;;;17.15;9.15;;;20.10;99.90;;;;;;5014051;28;20081;-73
2022/08/30 04:26:32;;;;;;;13.20;8.30;;;20.20;99.90;;;;;;5014135;28;20026;-72
2022/08/30 04:28:58;;;;;;;14.32;8.55;;;20.20;99.90;;;;;;5014277;28;20030;-72
2022/08/30 04:31:25;;;;;;;14.52;9.50;;;20.20;99.90;;;;;;5013969;28;20048;-74
2022/08/30 04:33:51;;;;;;;16.35;8.55;;;20.20;99.90;;;;;;5013686;28;20033;-73
2022/08/30 04:36:17;;;;;;;15.68;9.23;;;20.20;99.90;;;;;;5013528;28;20028;-71
2022/08/30 04:38:43;;;;;;;14.20;9.35;;;20.20;99.90;;;;;;5014160;28;20034;-75
2022/08/30 04:41:11;;;;;;;16.83;9.02;;;20.20;99.90;;;;;;5013756;28;20084;-74
2022/08/30 04:43:38;;;;;;;14.43;8.38;;;20.20;99.90;;;;;;5014015;28;20045;-74
2022/08/30 04:46:07;;;;;;;12.10;7.88;;;20.30;99.90;;;;;;5014059;28;20503;-75
2022/08/30 04:48:33;;;;;;;19.67;9.60;;;20.30;99.90;;;;;;5013508;28;20053;-75
2022/08/30 04:51:02;;;;;;;14.77;9.82;;;20.30;99.90;;;;;;5013214;28;20084;-74
2022/08/30 04:53:28;;;;;;;17.75;9.05;;;20.30;99.90;;;;;;5013879;28;20065;-75
2022/08/30 04:55:53;;;;;;;17.55;9.27;;;20.30;99.90;;;;;;5013872;28;20018;-75
2022/08/30 04:58:19;;;;;;;19.83;8.43;;;20.30;99.90;;;;;;5013825;28;20495;-75
2022/08/30 05:00:45;;;;;;;15.63;9.30;;;20.30;99.90;;;;;;5013520;28;20075;-76
2022/08/30 05:03:11;;;;;;;17.55;8.80;;;20.40;99.90;;;;;;5013293;28;20105;-75
2022/08/30 05:05:40;;;;;;;16.55;8.75;;;20.40;99.90;;;;;;5013295;28;20038;-76
2022/08/30 05:08:12;;;;;;;16.30;7.82;;;20.50;99.90;;;;;;5013344;28;20516;-75
2022/08/30 05:10:40;;;;;;;15.48;9.10;;;20.60;99.90;;;;;;5013335;28;20022;-75
2022/08/30 05:13:06;;;;;;;14.50;8.43;;;20.70;99.90;;;;;;5013052;28;20091;-75
2022/08/30 05:15:33;;;;;;;14.63;8.80;;;20.70;99.90;;;;;;5012674;28;20037;-74
2022/08/30 05:17:59;;;;;;;12.00;7.15;;;20.70;99.90;;;;;;5013336;28;20464;-75
2022/08/30 05:20:25;;;;;;;14.65;8.07;;;20.70;99.90;;;;;;5013132;28;20022;-74
2022/08/30 05:22:51;;;;;;;14.10;8.00;;;20.80;99.90;;;;;;5012810;28;20053;-74
2022/08/30 05:25:19;;;;;;;16.13;9.50;;;20.80;99.90;;;;;;5013141;28;20091;-74
2022/08/30 05:27:45;;;;;;;12.43;8.05;;;20.80;99.90;;;;;;5013144;28;20092;-74
2022/08/30 05:30:14;;;;;;;21.38;9.40;;;20.80;99.90;;;;;;5013017;28;20392;-75
2022/08/30 05:32:41;;;;;;;14.07;8.63;;;20.80;99.90;;;;;;5012858;28;20105;-75
2022/08/30 05:35:08;;;;;;;15.38;8.85;;;20.80;99.90;;;;;;5016218;28;20451;-75
2022/08/30 05:37:34;;;;;;;14.82;9.13;;;20.80;99.90;;;;;;5013189;28;20022;-73
2022/08/30 05:40:00;;;;;;;12.77;8.35;;;20.80;99.90;;;;;;5012668;28;20096;-76
2022/08/30 05:42:26;;;;;;;15.85;9.10;;;20.80;99.90;;;;;;5012614;28;20030;-76
2022/08/30 05:44:53;;;;;;;15.07;8.85;;;20.80;99.90;;;;;;5012490;28;20056;-75
2022/08/30 05:47:20;;;;;;;19.30;9.43;;;20.80;99.90;;;;;;5012865;28;20057;-76
2022/08/30 05:49:47;;;;;;;18.02;9.10;;;20.90;99.90;;;;;;5013127;28;20045;-76
2022/08/30 05:52:14;;;;;;;13.77;8.70;;;20.90;99.90;;;;;;5012955;28;20079;-75
2022/08/30 05:54:40;;;;;;;17.05;8.90;;;20.90;99.90;;;;;;5008898;28;20471;-75
2022/08/30 05:57:07;;;;;;;14.77;8.75;;;20.90;99.90;;;;;;5004481;28;20539;-76
2022/08/30 05:59:33;;;;;;;18.05;9.15;;;21.00;99.90;;;;;;5009375;28;20033;-76
2022/08/30 06:01:59;;;;;;;17.48;9.40;;;21.00;99.90;;;;;;5017826;28;20517;-75
2022/08/30 06:04:26;;;;;;;15.27;8.32;;;21.00;99.90;;;;;;5012346;28;20057;-67
2022/08/30 06:06:52;;;;;;;17.42;9.35;;;21.10;99.90;;;;;;5007601;28;20033;-74
2022/08/30 06:09:18;;;;;;;20.60;8.40;;;21.10;99.90;;;;;;5009577;28;20087;-75
2022/08/30 06:11:45;;;;;;;15.82;7.88;;;21.20;99.90;;;;;;5011894;28;20416;-77
2022/08/30 06:14:12;;;;;;;16.98;8.30;;;21.10;99.90;;;;;;5011258;28;20080;-76
2022/08/30 06:16:39;;;;;;;15.50;8.65;;;21.20;99.90;;;;;;5011698;28;20022;-76
2022/08/30 06:19:07;;;;;;;15.93;8.25;;;21.30;99.90;;;;;;5011510;28;20366;-75
2022/08/30 06:21:35;;;;;;;13.80;8.15;;;21.30;99.90;;;;;;5012000;28;20115;-76
2022/08/30 06:24:04;;;;;;;19.17;8.18;;;21.40;99.90;;;;;;5011958;28;20065;-75
2022/08/30 06:26:30;;;;;;;17.25;8.52;;;21.50;99.90;;;;;;5011809;28;20105;-76
2022/08/30 06:28:57;;;;;;;13.43;8.20;;;21.60;99.90;;;;;;5011679;28;20034;-75
2022/08/30 06:31:24;;;;;;;15.25;7.55;;;21.70;99.90;;;;;;5011841;28;20076;-77
2022/08/30 06:33:51;;;;;;;12.52;7.03;;;21.70;99.90;;;;;;5011891;28;20449;-75
2022/08/30 06:36:22;;;;;;;14.30;7.70;;;21.80;99.90;;;;;;5011362;28;20026;-77
2022/08/30 06:38:51;;;;;;;13.60;7.68;;;21.80;99.90;;;;;;5010374;28;20458;-74
2022/08/30 06:41:20;;;;;;;15.15;7.80;;;21.90;99.90;;;;;;5012156;28;20588;-75
2022/08/30 06:43:47;;;;;;;13.55;7.97;;;21.90;99.90;;;;;;5011998;28;20526;-76
2022/08/30 06:46:25;;;;;;;12.98;8.00;;;22.00;99.90;;;;;;5012036;28;20045;-76
2022/08/30 06:48:51;;;;;;;13.80;8.70;;;22.00;99.90;;;;;;5011677;28;20061;-74
2022/08/30 06:51:37;;;;;;;12.93;8.27;;;22.10;99.90;;;;;;5011546;28;20017;-76
2022/08/30 06:54:04;;;;;;;12.57;7.90;;;22.10;99.90;;;;;;5011080;28;20370;-77
2022/08/30 06:56:31;;;;;;;11.80;7.53;;;22.00;99.90;;;;;;5011180;28;20122;-76
2022/08/30 06:58:57;;;;;;;13.57;7.40;;;22.20;99.90;;;;;;5011696;28;20033;-74
2022/08/30 07:01:26;;;;;;;13.02;8.02;;;22.30;99.90;;;;;;5010585;28;20674;-77
2022/08/30 07:03:54;;;;;;;15.35;7.13;;;22.40;99.90;;;;;;5010502;28;20034;-76
2022/08/30 07:06:21;;;;;;;13.63;7.50;;;22.40;99.90;;;;;;5011143;28;20022;-76
2022/08/30 07:08:49;;;;;;;15.10;7.00;;;22.40;99.90;;;;;;5010838;28;20037;-76
2022/08/30 07:11:23;;;;;;;14.32;8.23;;;22.50;99.90;;;;;;5007928;28;20222;-76
2022/08/30 07:13:49;;;;;;;14.02;7.25;;;22.50;99.90;;;;;;5002025;28;20038;-75
2022/08/30 07:16:15;;;;;;;14.20;8.43;;;22.70;99.90;;;;;;5005633;28;20087;-76
2022/08/30 07:18:50;;;;;;;12.73;7.90;;;22.70;99.90;;;;;;5007807;28;20116;-77
2022/08/30 07:21:20;;;;;;;12.48;7.68;;;23.20;99.90;;;;;;5008321;28;20025;-77
2022/08/30 07:23:49;;;;;;;12.02;6.93;;;23.50;99.90;;;;;;5009011;28;20021;-76
2022/08/30 07:26:19;;;;;;;11.00;7.28;;;23.60;99.90;;;;;;5009309;28;20026;-75
2022/08/30 07:28:45;;;;;;;23.02;8.20;;;23.90;99.90;;;;;;5009354;28;20026;-77
2022/08/30 07:31:12;;;;;;;12.90;7.13;;;24.30;99.90;;;;;;5009454;28;20021;-74
2022/08/30 07:33:39;;;;;;;11.48;6.72;;;24.30;99.90;;;;;;5008603;28;20088;-73
2022/08/30 07:36:06;;;;;;;11.88;6.53;;;24.60;99.90;;;;;;5007208;28;20100;-75
2022/08/30 07:38:32;;;;;;;13.75;6.55;;;24.60;99.90;;;;;;5009990;28;20395;-75
2022/08/30 07:41:00;;;;;;;11.57;7.15;;;24.80;99.90;;;;;;5017002;28;20029;-76
2022/08/30 07:43:30;;;;;;;11.52;6.43;;;25.00;99.90;;;;;;5022195;28;20373;-76
2022/08/30 07:46:04;;;;;;;11.68;6.20;;;24.80;99.90;;;;;;5020797;28;20030;-76
2022/08/30 07:48:30;;;;;;;10.55;5.68;;;24.90;99.90;;;;;;5013077;28;20046;-75
2022/08/30 07:50:56;;;;;;;13.60;6.07;;;25.00;99.90;;;;;;5013732;28;20033;-76
2022/08/30 07:53:22;;;;;;;11.23;5.68;;;25.10;99.90;;;;;;5013710;28;20034;-76
2022/08/30 07:55:48;;;;;;;9.77;5.65;;;25.00;99.90;;;;;;5013499;28;20022;-76
2022/08/30 07:58:14;;;;;;;12.63;6.43;;;25.10;99.90;;;;;;5013702;28;20037;-76
2022/08/30 08:00:40;;;;;;;9.85;5.72;;;25.40;99.90;;;;;;5013737;28;20022;-73
2022/08/30 08:03:07;;;;;;;10.45;5.75;;;25.50;99.90;;;;;;5013290;28;20383;-70
2022/08/30 08:05:38;;;;;;;11.93;6.28;;;25.60;99.90;;;;;;5013226;28;20591;-75
2022/08/30 08:08:04;;;;;;;10.38;5.30;;;25.40;99.90;;;;;;5013626;28;20104;-75
2022/08/30 08:10:31;;;;;;;8.85;5.63;;;25.20;99.90;;;;;;5012593;28;20062;-74
2022/08/30 08:12:57;;;;;;;8.82;5.47;;;25.10;99.90;;;;;;5015051;28;20053;-74
2022/08/30 08:15:24;;;;;;;8.60;5.43;;;24.90;99.90;;;;;;4995265;28;20845;-75
2022/08/30 08:17:50;;;;;;;10.00;5.82;;;25.00;99.90;;;;;;4991082;28;20034;-72
2022/08/30 08:20:16;;;;;;;10.90;5.47;;;25.00;99.90;;;;;;4993209;28;20034;-76
2022/08/30 08:22:42;;;;;;;10.10;5.90;;;24.90;99.90;;;;;;4992411;28;20029;-76
2022/08/30 08:25:08;;;;;;;9.98;5.28;;;25.00;99.90;;;;;;4995281;28;20017;-72
2022/08/30 08:27:34;;;;;;;9.88;5.30;;;25.20;99.90;;;;;;4996088;28;20567;-76
2022/08/30 08:29:59;;;;;;;9.45;5.97;;;25.20;99.90;;;;;;5009438;28;20028;-76
2022/08/30 08:32:25;;;;;;;8.20;5.25;;;25.10;99.90;;;;;;5013252;28;20084;-76
2022/08/30 08:34:51;;;;;;;7.93;5.30;;;25.40;99.90;;;;;;5015670;28;20030;-74
2022/08/30 08:37:17;;;;;;;9.45;5.38;;;25.60;99.90;;;;;;5013307;28;20041;-75
2022/08/30 08:39:43;;;;;;;9.55;6.30;;;25.90;99.90;;;;;;5013149;28;20706;-76
2022/08/30 08:42:12;;;;;;;7.72;4.90;;;26.10;99.90;;;;;;5013525;28;20353;-70
2022/08/30 08:45:02;;;;;;;11.55;5.50;;;26.40;99.90;;;;;;5013721;28;20022;-74
2022/08/30 08:47:51;;;;;;;10.18;4.95;;;26.30;99.90;;;;;;5012982;28;20100;-74
2022/08/30 08:50:20;;;;;;;8.13;5.05;;;26.40;99.90;;;;;;5012270;28;20731;-74
2022/08/30 08:55:56;;;;;;;8.73;4.82;;;26.20;99.90;;;;;;5012951;28;20081;-75
2022/08/30 08:58:24;;;;;;;10.48;4.68;;;26.20;99.90;;;;;;5012859;28;20100;-75
2022/08/30 09:00:50;;;;;;;10.45;5.00;;;26.30;99.90;;;;;;5012952;28;20034;-74
2022/08/30 09:03:20;;;;;;;10.32;5.07;;;26.20;99.90;;;;;;5013033;28;20420;-73
2022/08/30 09:05:47;;;;;;;8.25;4.60;;;26.20;99.90;;;;;;5013116;28;20389;-76
2022/08/30 09:08:16;;;;;;;13.57;5.10;;;26.00;99.90;;;;;;5013581;28;20022;-73
2022/08/30 09:11:03;;;;;;;7.30;4.95;;;25.90;99.90;;;;;;5013141;28;20423;-75
2022/08/30 09:13:29;;;;;;;11.52;5.50;;;25.70;99.90;;;;;;5012694;28;20140;-74
2022/08/30 09:15:57;;;;;;;10.32;6.00;;;25.60;99.90;;;;;;5013404;28;20105;-72
2022/08/30 09:18:44;;;;;;;9.20;5.40;;;25.50;99.90;;;;;;5012455;28;20030;-74
2022/08/30 09:21:11;;;;;;;9.38;5.65;;;25.50;99.90;;;;;;5012785;28;20030;-73
2022/08/30 09:23:48;;;;;;;10.07;5.32;;;25.40;99.90;;;;;;5012625;28;20021;-74
2022/08/30 09:26:25;;;;;;;9.65;5.80;;;25.40;99.90;;;;;;5012670;28;20105;-74
2022/08/30 09:28:53;;;;;;;6.53;4.38;;;25.30;99.90;;;;;;5012661;28;20076;-75
2022/08/30 09:31:30;;;;;;;11.15;5.40;;;25.40;99.90;;;;;;5012624;28;20018;-74
2022/08/30 09:34:16;;;;;;;11.30;5.63;;;25.60;99.90;;;;;;5012824;28;20474;-75
2022/08/30 09:36:45;;;;;;;10.65;5.85;;;25.40;99.90;;;;;;5012732;28;20068;-75
2022/08/30 09:39:14;;;;;;;10.75;5.72;;;25.50;99.90;;;;;;5012517;28;20376;-76
2022/08/30 09:41:43;;;;;;;12.23;6.50;;;25.50;99.90;;;;;;5012211;28;20084;-73
2022/08/30 09:44:30;;;;;;;10.55;5.35;;;25.40;99.90;;;;;;5012158;28;20022;-74
2022/08/30 09:46:59;;;;;;;14.00;6.32;;;25.60;99.90;;;;;;5012042;28;20041;-76
2022/08/30 09:49:38;;;;;;;10.13;5.32;;;25.70;99.90;;;;;;5012384;28;20408;-75
2022/08/30 09:52:16;;;;;;;9.50;5.50;;;25.80;99.90;;;;;;5011966;28;20040;-71
2022/08/30 09:55:06;;;;;;;10.98;5.50;;;26.10;99.90;;;;;;5010870;28;20069;-76
2022/08/30 09:58:10;;;;;;;13.00;5.18;;;26.30;99.90;;;;;;5011921;28;20030;-75
2022/08/30 10:01:04;;;;;;;8.75;5.40;;;26.30;99.90;;;;;;5005416;28;20025;-76
2022/08/30 10:03:48;;;;;;;9.02;5.72;;;26.40;99.90;;;;;;5015331;28;20038;-76
2022/08/30 10:06:14;;;;;;;10.13;6.25;;;26.60;99.90;;;;;;5012537;28;20424;-76
2022/08/30 10:08:52;;;;;;;10.55;6.35;;;26.80;99.90;;;;;;5011970;28;20026;-73
2022/08/30 10:11:31;;;;;;;9.75;5.40;;;26.80;99.90;;;;;;5012442;28;20018;-75
2022/08/30 10:13:57;;;;;;;10.25;5.22;;;26.80;99.90;;;;;;5012041;28;20046;-74
2022/08/30 10:16:44;;;;;;;9.13;5.88;;;26.70;99.90;;;;;;5012210;28;20018;-76
2022/08/30 10:19:13;;;;;;;10.13;5.80;;;26.70;99.90;;;;;;5011796;28;20029;-75
2022/08/30 10:22:12;;;;;;;12.65;5.47;;;26.80;99.90;;;;;;5011713;28;20610;-76
2022/08/30 10:24:49;;;;;;;6.90;5.00;;;26.70;99.90;;;;;;5011345;28;20044;-75
2022/08/30 10:27:28;;;;;;;11.68;5.25;;;26.60;99.90;;;;;;5012139;28;20045;-71
2022/08/30 10:30:12;;;;;;;11.27;5.68;;;26.70;99.90;;;;;;4999637;28;20065;-76
2022/08/30 10:32:54;;;;;;;19.48;6.10;;;26.90;99.90;;;;;;5011952;28;20133;-76
2022/08/30 10:35:27;;;;;;;9.40;5.68;;;27.00;99.90;;;;;;5011534;28;20033;-75
2022/08/30 10:38:10;;;;;;;10.18;5.35;;;27.00;99.90;;;;;;5011937;28;20468;-75
2022/08/30 10:43:52;;;;;;;8.65;5.15;;;26.90;99.90;;;;;;5011448;28;20034;-75
2022/08/30 10:46:39;;;;;;;9.38;5.53;;;27.10;99.90;;;;;;5011404;28;20411;-77
2022/08/30 10:49:11;;;;;;;11.38;4.93;;;;;;;;;;5011447;28;20551;-76
2022/08/30 10:52:14;;;;;;;7.65;4.85;;;27.20;99.90;;;;;;5011664;28;20022;-74
2022/08/30 10:54:50;;;;;;;7.78;5.18;;;27.20;99.90;;;;;;5011722;28;20030;-76
2022/08/30 10:57:19;;;;;;;9.10;5.25;;;27.30;99.90;;;;;;5011383;28;20113;-73
2022/08/30 10:59:55;;;;;;;8.23;5.18;;;27.30;99.90;;;;;;5011290;28;20484;-76
2022/08/30 11:02:55;;;;;;;9.70;5.30;;;27.60;99.90;;;;;;5010978;28;20453;-76
2022/08/30 11:05:33;;;;;;;7.80;5.07;;;;;;;;;;5011371;28;20084;-77
2022/08/30 11:08:08;;;;;;;9.25;5.20;;;27.80;99.90;;;;;;5011576;28;20036;-75
2022/08/30 11:11:04;;;;;;;11.55;5.63;;;27.80;99.90;;;;;;5011549;28;20022;-74
2022/08/30 11:13:33;;;;;;;8.27;5.00;;;28.20;99.90;;;;;;5009868;28;20400;-76
2022/08/30 11:16:02;;;;;;;9.95;5.15;;;;;;;;;;5015467;28;20026;-76
2022/08/30 11:18:32;;;;;;;8.65;4.60;;;28.20;99.90;;;;;;5015198;28;20022;-76
2022/08/30 11:21:36;;;;;;;8.38;5.05;;;28.10;99.90;;;;;;5014078;28;20397;-74
2022/08/30 11:24:16;;;;;;;9.90;4.65;;;28.10;99.90;;;;;;5012116;28;20018;-74
2022/08/30 11:26:44;;;;;;;9.52;5.55;;;28.20;99.90;;;;;;5013936;28;20091;-76
2022/08/30 11:29:26;;;;;;;7.50;4.80;;;28.20;99.90;;;;;;5014380;28;20014;-74
2022/08/30 11:31:53;;;;;;;8.23;5.03;;;28.40;99.90;;;;;;5013030;28;20029;-75
2022/08/30 11:34:38;;;;;;;8.27;4.90;;;;;;;;;;5014502;28;20026;-76
2022/08/30 11:37:05;;;;;;;7.72;4.53;;;28.30;99.90;;;;;;5013550;28;20057;-76
2022/08/30 11:39:46;;;;;;;11.13;5.40;;;28.30;99.90;;;;;;5014412;28;20077;-76
2022/08/30 11:42:28;;;;;;;10.00;5.07;;;28.50;99.90;;;;;;5014487;28;20057;-77
2022/08/30 11:45:14;;;;;;;9.45;4.82;;;;;;;;;;5014903;28;20473;-76
2022/08/30 11:47:50;;;;;;;10.98;5.43;;;28.50;99.90;;;;;;5014403;28;20392;-76
2022/08/30 11:50:47;;;;;;;9.43;5.85;;;28.80;99.90;;;;;;5014628;28;20034;-77
2022/08/30 11:53:25;;;;;;;10.15;4.90;;;;;;;;;;5014058;28;20033;-75
2022/08/30 11:56:28;;;;;;;8.45;5.07;;;29.20;99.90;;;;;;5008015;28;20113;-72
2022/08/30 11:59:00;;;;;;;5.10;3.63;;;29.30;99.90;;;;;;5011557;28;20036;-76
2022/08/30 12:01:26;;;;;;;7.60;4.53;;;;;;;;;;5012358;28;20167;-76
2022/08/30 12:04:00;;;;;;;5.97;3.17;;;29.50;99.90;;;;;;5012258;28;20380;-74
2022/08/30 12:06:40;;;;;;;5.32;2.97;;;29.30;98.00;;;;;;5012530;28;20038;-74
2022/08/30 12:09:27;;;;;;;7.88;3.85;;;28.90;96.10;;;;;;5010874;28;20068;-68
2022/08/30 12:12:05;;;;;;;5.28;3.15;;;28.60;97.70;;;;;;4970450;28;20038;-75
2022/08/30 12:14:43;;;;;;;8.02;3.08;;;28.00;99.70;;;;;;4972669;28;20058;-75
2022/08/30 12:19:59;;;;;;;6.43;3.40;;;27.30;99.90;;;;;;4972244;28;20126;-75
2022/08/30 12:22:26;;;;;;;6.78;3.58;;;27.00;99.90;;;;;;4972704;28;20026;-76
2022/08/30 12:24:53;;;;;;;5.72;3.42;;;27.00;99.90;;;;;;4971639;28;20045;-75
2022/08/30 12:27:31;;;;;;;4.78;3.20;;;26.80;99.90;;;;;;4972403;28;20023;-75
2022/08/30 12:30:01;;;;;;;4.40;2.78;;;26.80;99.90;;;;;;4972558;28;20055;-75
2022/08/30 12:32:28;;;;;;;5.00;3.17;;;26.70;99.90;;;;;;4972785;28;20035;-76
2022/08/30 12:35:05;;;;;;;9.70;3.97;;;26.70;99.90;;;;;;4971795;28;20330;-71
2022/08/30 12:37:35;;;;;;;7.97;4.55;;;26.60;99.90;;;;;;4964518;28;20470;-75
2022/08/30 12:40:07;;;;;;;8.65;3.88;;;26.50;99.90;;;;;;4965610;28;20564;-75
2022/08/30 12:42:41;;;;;;;5.78;3.42;;;26.30;99.90;;;;;;4969425;28;20299;-72
2022/08/30 12:45:12;;;;;;;7.85;4.05;;;26.00;99.90;;;;;;4971756;28;20045;-66
2022/08/30 12:47:46;;;;;;;11.30;5.13;;;25.70;99.90;;;;;;4937083;28;20067;-72
2022/08/30 12:50:25;;;;;;;12.38;5.72;;;25.80;99.90;;;;;;5012678;28;20028;-73
2022/08/30 12:52:59;;;;;;;11.88;4.82;;;25.50;99.90;;;;;;5004733;28;20117;-72
2022/08/30 12:55:32;;;;;;;10.70;4.68;;;25.30;99.90;;;;;;5010429;28;20193;-74
2022/08/30 12:58:10;;;;;;;11.60;5.78;;;25.30;99.90;;;;;;5012592;28;20040;-74
2022/08/30 13:00:39;;;;;;;11.50;5.05;;;25.20;99.90;;;;;;5013702;28;20159;-73
2022/08/30 13:03:27;;;;;;;12.35;5.30;;;25.30;99.90;;;;;;5012897;28;20101;-74
2022/08/30 13:05:54;;;;;;;10.02;5.25;;;25.20;99.90;;;;;;5012237;28;20018;-75